createdAt,value
2023-01-17T00:02:21.563Z,98424.84
2023-01-17T00:05:11.201Z,98434.13
2023-01-17T00:07:56.414Z,98428.22
2023-01-17T00:10:26.917Z,98459.91
2023-01-17T00:12:56.808Z,98466.28
2023-01-17T00:15:24.339Z,98465.78
2023-01-17T00:17:51.120Z,98452.25
2023-01-17T00:20:39.457Z,98450.19
2023-01-17T00:23:35.142Z,98482.91
2023-01-17T00:26:04.638Z,98481.16
2023-01-17T00:28:42.239Z,98482.53
2023-01-17T00:31:15.173Z,98495.09
2023-01-17T00:33:42.037Z,98481.38
2023-01-17T00:36:09.637Z,98481.81
2023-01-17T00:38:38.168Z,98516.53
2023-01-17T00:41:07.074Z,98508.19
2023-01-17T00:43:52.665Z,98478.94
2023-01-17T00:46:37.977Z,98510.97
2023-01-17T00:49:23.544Z,98473.81
2023-01-17T00:52:11.068Z,98516.38
2023-01-17T00:54:56.361Z,98524.28
2023-01-17T00:57:42.221Z,98512.28
2023-01-17T01:00:30.446Z,98502.47
2023-01-17T01:03:15.816Z,98540.81
2023-01-17T01:06:01.059Z,98543.00
2023-01-17T01:08:48.241Z,98538.97
2023-01-17T01:11:39.076Z,98554.81
2023-01-17T01:14:29.229Z,98528.59
2023-01-17T01:17:14.494Z,98559.53
2023-01-17T01:20:04.800Z,98522.31
2023-01-17T01:22:50.046Z,98532.84
2023-01-17T01:25:35.307Z,98566.13
2023-01-17T01:28:31.949Z,98563.59
2023-01-17T01:31:24.446Z,98559.53
2023-01-17T01:33:52.701Z,98539.16
2023-01-17T01:36:20.122Z,98557.75
2023-01-17T01:38:46.733Z,98547.25
2023-01-17T01:41:13.470Z,98587.06
2023-01-17T01:43:49.043Z,98587.44
2023-01-17T01:46:27.216Z,98592.38
2023-01-17T01:49:02.857Z,98598.28
2023-01-17T01:51:38.932Z,98592.91
2023-01-17T01:54:12.038Z,98604.75
2023-01-17T01:56:40.538Z,98603.38
2023-01-17T01:59:14.195Z,98578.09
2023-01-17T02:01:41.033Z,98573.47
2023-01-17T02:04:11.655Z,98614.88
2023-01-17T02:06:56.350Z,98601.09
2023-01-17T02:09:24.253Z,98627.84
2023-01-17T02:11:51.167Z,98619.94
2023-01-17T02:14:20.397Z,98624.53
2023-01-17T02:16:53.052Z,98634.19
2023-01-17T02:19:45.761Z,98635.00
2023-01-17T02:22:27.605Z,98634.03
2023-01-17T02:25:09.679Z,98639.56
2023-01-17T02:28:13.577Z,98632.09
2023-01-17T02:30:46.126Z,98631.34
2023-01-17T02:33:31.024Z,98631.09
2023-01-17T02:36:22.569Z,98634.44
2023-01-17T02:39:12.074Z,98629.50
2023-01-17T02:41:45.998Z,98638.56
2023-01-17T02:44:18.761Z,98629.28
2023-01-17T02:46:57.416Z,98628.97
2023-01-17T02:49:31.122Z,98633.72
2023-01-17T02:52:08.334Z,98606.41
2023-01-17T02:54:37.657Z,98645.41
2023-01-17T02:57:22.864Z,98647.16
2023-01-17T03:00:01.755Z,98654.31
2023-01-17T03:02:43.807Z,98649.69
2023-01-17T03:05:24.103Z,98642.56
2023-01-17T03:07:52.357Z,98637.00
2023-01-17T03:10:21.177Z,98666.47
2023-01-17T03:12:48.506Z,98648.63
2023-01-17T03:15:17.648Z,98627.16
2023-01-17T03:17:50.652Z,98678.75
2023-01-17T03:20:17.613Z,98692.50
2023-01-17T03:22:44.337Z,98678.66
2023-01-17T03:25:13.160Z,98696.59
2023-01-17T03:27:39.858Z,98690.13
2023-01-17T03:30:07.424Z,98691.97
2023-01-17T03:32:34.114Z,98705.53
2023-01-17T03:35:00.689Z,98699.88
2023-01-17T03:37:27.358Z,98700.25
2023-01-17T03:39:56.493Z,98698.41
2023-01-17T03:42:23.032Z,98663.09
2023-01-17T03:44:49.672Z,98692.03
2023-01-17T03:47:16.306Z,98694.19
2023-01-17T03:49:42.844Z,98695.88
2023-01-17T03:52:09.502Z,98699.56
2023-01-17T03:54:37.906Z,98704.94
2023-01-17T03:57:04.986Z,98704.63
2023-01-17T03:59:34.109Z,98703.59
2023-01-17T04:02:01.416Z,98702.03
2023-01-17T04:04:28.091Z,98699.81
2023-01-17T04:06:57.086Z,98702.56
2023-01-17T04:09:23.675Z,98718.13
2023-01-17T04:11:51.072Z,98708.81
2023-01-17T04:14:17.736Z,98675.78
2023-01-17T04:16:44.621Z,98712.63
2023-01-17T04:19:14.361Z,98684.38
2023-01-17T04:21:40.970Z,98714.34
2023-01-17T04:24:08.248Z,98681.69
2023-01-17T04:26:35.077Z,98698.09
2023-01-17T04:29:01.844Z,98699.03
2023-01-17T04:31:28.515Z,98702.00
2023-01-17T04:33:55.136Z,98706.41
2023-01-17T04:36:21.906Z,98693.97
2023-01-17T04:38:50.906Z,98691.72
2023-01-17T04:41:17.477Z,98701.50
2023-01-17T04:43:44.662Z,98680.03
2023-01-17T04:46:11.623Z,98682.16
2023-01-17T04:48:38.471Z,98695.31
2023-01-17T04:51:07.700Z,98700.53
2023-01-17T04:53:34.464Z,98683.59
2023-01-17T04:56:01.087Z,98682.91
2023-01-17T04:58:30.653Z,98701.41
2023-01-17T05:01:02.028Z,98697.88
2023-01-17T05:03:29.555Z,98704.53
2023-01-17T05:05:56.382Z,98710.44
2023-01-17T05:08:22.957Z,98705.69
2023-01-17T05:10:49.605Z,98715.28
2023-01-17T05:13:16.513Z,98688.28
2023-01-17T05:15:43.888Z,98684.75
2023-01-17T05:18:15.747Z,98688.97
2023-01-17T05:20:42.829Z,98701.44
2023-01-17T05:23:10.095Z,98718.66
2023-01-17T05:25:37.516Z,98706.25
2023-01-17T05:28:07.322Z,98735.22
2023-01-17T05:30:36.239Z,98727.19
2023-01-17T05:33:02.891Z,98724.31
2023-01-17T05:35:35.278Z,98722.09
2023-01-17T05:38:02.334Z,98695.06
2023-01-17T05:40:31.112Z,98729.28
2023-01-17T05:43:00.168Z,98704.69
2023-01-17T05:45:28.879Z,98733.13
2023-01-17T05:47:59.266Z,98716.41
2023-01-17T05:50:34.202Z,98699.06
2023-01-17T05:53:09.829Z,98731.56
2023-01-17T05:55:37.012Z,98744.16
2023-01-17T05:58:06.925Z,98720.69
2023-01-17T06:00:33.623Z,98713.19
2023-01-17T06:03:01.246Z,98739.63
2023-01-17T06:05:28.878Z,98737.91
2023-01-17T06:07:56.535Z,98739.75
2023-01-17T06:10:24.084Z,98737.06
2023-01-17T06:13:00.104Z,98725.50
2023-01-17T06:15:26.707Z,98742.03
2023-01-17T06:17:55.545Z,98734.66
2023-01-17T06:20:24.464Z,98745.81
2023-01-17T06:22:53.225Z,98752.22
2023-01-17T06:25:19.812Z,98749.78
2023-01-17T06:27:46.451Z,98756.97
2023-01-17T06:30:15.953Z,98765.03
2023-01-17T06:32:42.614Z,98760.81
2023-01-17T06:35:09.913Z,98754.88
2023-01-17T06:37:39.010Z,98729.28
2023-01-17T06:40:06.595Z,98756.84
2023-01-17T06:42:35.674Z,98766.03
2023-01-17T06:45:02.580Z,98771.97
2023-01-17T06:47:31.487Z,98771.25
2023-01-17T06:49:58.287Z,98774.09
2023-01-17T06:52:24.979Z,98768.44
2023-01-17T06:54:54.142Z,98777.75
2023-01-17T06:57:20.856Z,98777.03
2023-01-17T06:59:47.693Z,98763.59
2023-01-17T07:02:16.823Z,98773.78
2023-01-17T07:04:48.015Z,98769.69
2023-01-17T07:07:14.647Z,98772.38
2023-01-17T07:09:44.112Z,98777.03
2023-01-17T07:12:10.740Z,98780.69
2023-01-17T07:14:37.729Z,98767.09
2023-01-17T07:17:04.800Z,98779.16
2023-01-17T07:19:35.712Z,98773.31
2023-01-17T07:22:05.010Z,98782.22
2023-01-17T07:24:32.894Z,98778.84
2023-01-17T07:27:02.021Z,98778.88
2023-01-17T07:29:30.864Z,98779.16
2023-01-17T07:31:59.701Z,98782.09
2023-01-17T07:34:33.558Z,98778.38
2023-01-17T07:37:00.442Z,98777.94
2023-01-17T07:39:27.261Z,98785.47
2023-01-17T07:41:54.712Z,98787.00
2023-01-17T07:44:22.061Z,98771.84
2023-01-17T07:46:51.248Z,98798.84
2023-01-17T07:49:20.602Z,98773.97
2023-01-17T07:51:47.934Z,98785.84
2023-01-17T07:54:17.006Z,98779.31
2023-01-17T07:56:47.148Z,98805.34
2023-01-17T07:59:14.212Z,98796.16
2023-01-17T08:01:41.028Z,98820.22
2023-01-17T08:04:11.723Z,98814.72
2023-01-17T08:06:42.429Z,98814.56
2023-01-17T08:09:09.217Z,98815.84
2023-01-17T08:11:36.211Z,98789.38
2023-01-17T08:14:02.811Z,98796.59
2023-01-17T08:16:29.867Z,98792.94
2023-01-17T08:18:59.496Z,98818.66
2023-01-17T08:21:26.529Z,98818.13
2023-01-17T08:23:55.634Z,98779.53
2023-01-17T08:26:22.597Z,98814.34
2023-01-17T08:29:00.550Z,98817.44
2023-01-17T08:31:31.781Z,98819.03
2023-01-17T08:33:58.493Z,98818.88
2023-01-17T08:36:25.948Z,98794.84
2023-01-17T08:38:53.234Z,98813.94
2023-01-17T08:41:20.983Z,98821.28
2023-01-17T08:43:49.168Z,98825.41
2023-01-17T08:46:16.327Z,98815.66
2023-01-17T08:48:43.586Z,98803.78
2023-01-17T08:51:11.164Z,98829.38
2023-01-17T08:53:38.059Z,98804.91
2023-01-17T08:56:05.920Z,98822.75
2023-01-17T08:58:33.175Z,98812.56
2023-01-17T09:01:02.300Z,98822.78
2023-01-17T09:03:30.113Z,98791.66
2023-01-17T09:06:11.525Z,98828.84
2023-01-17T09:08:38.531Z,98832.25
2023-01-17T09:11:12.375Z,98828.28
2023-01-17T09:13:39.474Z,98837.78
2023-01-17T09:16:09.637Z,98816.56
2023-01-17T09:18:36.787Z,98830.41
2023-01-17T09:21:14.713Z,98837.06
2023-01-17T09:23:41.847Z,98837.19
2023-01-17T09:26:20.022Z,98808.75
2023-01-17T09:28:46.875Z,98842.41
2023-01-17T09:31:17.750Z,98840.44
2023-01-17T09:33:44.807Z,98808.47
2023-01-17T09:36:14.015Z,98848.47
2023-01-17T09:38:44.194Z,98847.03
2023-01-17T09:41:28.043Z,98843.59
2023-01-17T09:43:57.572Z,98851.03
2023-01-17T09:46:29.608Z,98850.69
2023-01-17T09:49:14.398Z,98855.53
2023-01-17T09:51:42.497Z,98823.22
2023-01-17T09:54:22.765Z,98838.41
2023-01-17T09:57:16.513Z,98859.91
2023-01-17T10:00:08.682Z,98848.41
2023-01-17T10:02:57.215Z,98859.94
2023-01-17T10:05:43.396Z,98861.47
2023-01-17T10:08:15.774Z,98840.25
2023-01-17T10:11:15.369Z,98838.59
2023-01-17T10:14:06.473Z,98868.03
2023-01-17T10:16:55.961Z,98872.19
2023-01-17T10:20:01.971Z,98864.03
2023-01-17T10:22:40.840Z,98873.88
2023-01-17T10:25:33.216Z,98864.38
2023-01-17T10:28:08.624Z,98864.28
2023-01-17T10:30:42.575Z,98858.34
2023-01-17T10:33:18.351Z,98840.31
2023-01-17T10:35:59.975Z,98859.38
2023-01-17T10:38:37.068Z,98839.88
2023-01-17T10:41:27.676Z,98867.31
2023-01-17T10:44:32.582Z,98872.03
2023-01-17T10:47:14.443Z,98846.50
2023-01-17T10:49:52.798Z,98852.50
2023-01-17T10:52:29.419Z,98840.66
2023-01-17T10:55:17.243Z,98869.31
2023-01-17T10:57:49.275Z,98864.06
2023-01-17T11:00:22.027Z,98865.06
2023-01-17T11:02:50.919Z,98866.94
2023-01-17T11:05:25.029Z,98850.88
2023-01-17T11:07:59.951Z,98854.06
2023-01-17T11:10:47.204Z,98851.34
2023-01-17T11:13:25.010Z,98850.84
2023-01-17T11:15:57.803Z,98841.22
2023-01-17T11:18:28.732Z,98822.19
2023-01-17T11:21:17.472Z,98832.09
2023-01-17T11:23:54.828Z,98853.06
2023-01-17T11:26:27.450Z,98841.91
2023-01-17T11:29:14.723Z,98846.81
2023-01-17T11:31:41.532Z,98839.94
2023-01-17T11:34:22.338Z,98837.66
2023-01-17T11:36:50.125Z,98825.41
2023-01-17T11:39:21.954Z,98846.13
2023-01-17T11:41:48.933Z,98830.09
2023-01-17T11:44:30.522Z,98838.59
2023-01-17T11:47:17.084Z,98791.53
2023-01-17T11:49:46.709Z,98811.38
2023-01-17T11:52:27.406Z,98843.22
2023-01-17T11:54:55.539Z,98844.94
2023-01-17T11:57:28.127Z,98832.91
2023-01-17T12:00:03.933Z,98824.97
2023-01-17T12:02:42.741Z,98837.00
2023-01-17T12:05:44.447Z,98833.59
2023-01-17T12:08:22.854Z,98815.28
2023-01-17T12:10:52.799Z,98843.06
2023-01-17T12:13:54.812Z,98842.38
2023-01-17T12:16:45.958Z,98836.63
2023-01-17T12:19:33.761Z,98831.91
2023-01-17T12:22:19.647Z,98831.94
2023-01-17T12:25:02.047Z,98823.00
2023-01-17T12:27:43.616Z,98820.97
2023-01-17T12:30:10.541Z,98823.00
2023-01-17T12:32:53.432Z,98824.53
2023-01-17T12:35:36.861Z,98826.06
2023-01-17T12:38:08.713Z,98801.19
2023-01-17T12:41:01.590Z,98800.16
2023-01-17T12:43:33.511Z,98800.66
2023-01-17T12:46:05.108Z,98784.75
2023-01-17T12:48:36.824Z,98789.66
2023-01-17T12:51:43.333Z,98814.72
2023-01-17T12:54:21.950Z,98813.69
2023-01-17T12:57:02.476Z,98789.97
2023-01-17T12:59:57.538Z,98811.63
2023-01-17T13:02:42.912Z,98821.75
2023-01-17T13:05:16.923Z,98819.72
2023-01-17T13:07:56.510Z,98825.94
2023-01-17T13:10:38.148Z,98823.78
2023-01-17T13:13:32.858Z,98815.69
2023-01-17T13:16:11.715Z,98803.47
2023-01-17T13:18:45.459Z,98797.22
2023-01-17T13:21:33.189Z,98818.38
2023-01-17T13:23:59.910Z,98816.34
2023-01-17T13:26:55.645Z,98824.94
2023-01-17T13:29:50.578Z,98804.44
2023-01-17T13:32:17.341Z,98827.31
2023-01-17T13:34:57.407Z,98823.38
2023-01-17T13:38:09.042Z,98826.59
2023-01-17T13:40:51.709Z,98820.47
2023-01-17T13:43:41.156Z,98822.31
2023-01-17T13:46:11.301Z,98816.22
2023-01-17T13:48:40.851Z,98814.16
2023-01-17T13:51:09.657Z,98822.28
2023-01-17T13:53:36.995Z,98830.53
2023-01-17T13:56:18.912Z,98835.41
2023-01-17T13:58:47.233Z,98836.25
2023-01-17T14:01:14.053Z,98802.38
2023-01-17T14:03:52.775Z,98836.06
2023-01-17T14:06:40.717Z,98840.06
2023-01-17T14:09:19.537Z,98842.25
2023-01-17T14:12:03.288Z,98845.44
2023-01-17T14:14:42.897Z,98840.34
2023-01-17T14:17:30.878Z,98838.13
2023-01-17T14:20:19.055Z,98845.19
2023-01-17T14:22:58.055Z,98842.94
2023-01-17T14:25:31.143Z,98835.78
2023-01-17T14:28:06.391Z,98844.06
2023-01-17T14:30:37.277Z,98840.81
2023-01-17T14:33:04.791Z,98836.25
2023-01-17T14:35:36.111Z,98813.88
2023-01-17T14:38:05.671Z,98809.97
2023-01-17T14:40:34.273Z,98825.66
2023-01-17T14:43:05.548Z,98845.94
2023-01-17T14:45:35.193Z,98858.75
2023-01-17T14:48:12.694Z,98844.72
2023-01-17T14:50:41.543Z,98852.28
2023-01-17T14:53:11.522Z,98848.22
2023-01-17T14:55:39.462Z,98850.53
2023-01-17T14:58:06.098Z,98856.94
2023-01-17T15:00:39.448Z,98850.13
2023-01-17T15:03:11.437Z,98835.66
2023-01-17T15:05:41.710Z,98834.41
2023-01-17T15:08:15.068Z,98864.72
2023-01-17T15:10:51.643Z,98863.31
2023-01-17T15:13:29.884Z,98865.94
2023-01-17T15:16:17.786Z,98841.13
2023-01-17T15:18:44.512Z,98877.78
2023-01-17T15:21:22.939Z,98874.84
2023-01-17T15:24:02.278Z,98874.63
2023-01-17T15:26:33.453Z,98854.88
2023-01-17T15:29:31.789Z,98876.44
2023-01-17T15:32:03.622Z,98877.44
2023-01-17T15:34:43.098Z,98853.44
2023-01-17T15:37:36.244Z,98875.38
2023-01-17T15:40:25.139Z,98877.81
2023-01-17T15:42:58.259Z,98884.09
2023-01-17T15:45:29.511Z,98884.84
2023-01-17T15:47:56.199Z,98878.78
2023-01-17T15:50:30.878Z,98861.03
2023-01-17T15:53:06.170Z,98887.63
2023-01-17T15:55:37.038Z,98888.34
2023-01-17T15:58:05.688Z,98885.53
2023-01-17T16:00:39.341Z,98864.03
2023-01-17T16:03:31.216Z,98893.91
2023-01-17T16:06:00.820Z,98858.84
2023-01-17T16:08:38.877Z,98886.13
2023-01-17T16:11:10.827Z,98875.69
2023-01-17T16:13:43.621Z,98891.53
2023-01-17T16:16:16.725Z,98855.88
2023-01-17T16:18:43.990Z,98883.47
2023-01-17T16:21:19.234Z,98909.06
2023-01-17T16:23:49.035Z,98907.97
2023-01-17T16:26:16.173Z,98884.16
2023-01-17T16:28:43.082Z,98912.50
2023-01-17T16:31:09.761Z,98918.16
2023-01-17T16:33:36.461Z,98912.91
2023-01-17T16:36:03.398Z,98910.50
2023-01-17T16:38:32.431Z,98900.00
2023-01-17T16:40:59.399Z,98885.84
2023-01-17T16:43:26.298Z,98903.38
2023-01-17T16:45:54.160Z,98918.66
2023-01-17T16:48:21.868Z,98916.25
2023-01-17T16:50:50.893Z,98906.63
2023-01-17T16:53:24.717Z,98886.94
2023-01-17T16:55:57.327Z,98914.25
2023-01-17T16:58:24.370Z,98920.03
2023-01-17T17:00:55.752Z,98907.44
2023-01-17T17:03:22.764Z,98921.59
2023-01-17T17:06:00.359Z,98926.38
2023-01-17T17:08:29.677Z,98918.56
2023-01-17T17:11:07.546Z,98936.97
2023-01-17T17:13:37.274Z,98938.06
2023-01-17T17:16:14.866Z,98923.03
2023-01-17T17:18:42.303Z,98938.16
2023-01-17T17:21:09.069Z,98947.63
2023-01-17T17:23:36.415Z,98953.31
2023-01-17T17:26:03.066Z,98948.19
2023-01-17T17:28:30.167Z,98945.22
2023-01-17T17:31:11.258Z,98951.56
2023-01-17T17:33:40.375Z,98953.34
2023-01-17T17:36:10.405Z,98931.59
2023-01-17T17:38:48.464Z,98966.03
2023-01-17T17:41:18.102Z,98963.34
2023-01-17T17:43:44.900Z,98975.94
2023-01-17T17:46:11.643Z,98983.28
2023-01-17T17:48:53.910Z,98986.22
2023-01-17T17:51:32.077Z,98990.13
2023-01-17T17:54:04.706Z,98976.78
2023-01-17T17:56:34.531Z,98971.66
2023-01-17T17:59:02.715Z,98986.09
2023-01-17T18:01:29.675Z,98984.13
2023-01-17T18:04:00.557Z,98993.28
2023-01-17T18:06:27.572Z,99004.75
2023-01-17T18:08:54.422Z,99003.28
2023-01-17T18:11:23.920Z,99002.72
2023-01-17T18:13:51.601Z,99008.06
2023-01-17T18:16:32.683Z,99008.59
2023-01-17T18:19:00.021Z,99003.41
2023-01-17T18:21:28.764Z,98988.72
2023-01-17T18:24:00.320Z,99008.94
2023-01-17T18:26:30.154Z,99013.59
2023-01-17T18:29:01.723Z,99034.28
2023-01-17T18:31:30.160Z,99037.94
2023-01-17T18:33:59.589Z,99008.13
2023-01-17T18:36:28.956Z,99015.94
2023-01-17T18:38:56.529Z,99010.59
2023-01-17T18:41:28.800Z,99035.03
2023-01-17T18:43:56.288Z,99032.13
2023-01-17T18:46:23.376Z,99043.31
2023-01-17T18:48:51.566Z,99018.31
2023-01-17T18:51:19.770Z,99041.44
2023-01-17T18:53:47.359Z,99049.34
2023-01-17T18:56:22.116Z,99017.22
2023-01-17T18:58:52.593Z,99043.03
2023-01-17T19:01:25.113Z,99051.44
2023-01-17T19:03:57.893Z,99062.75
2023-01-17T19:06:34.330Z,99041.00
2023-01-17T19:09:01.448Z,99072.66
2023-01-17T19:11:30.839Z,99030.03
2023-01-17T19:14:00.481Z,99048.56
2023-01-17T19:16:29.955Z,99055.63
2023-01-17T19:19:08.212Z,99027.63
2023-01-17T19:21:35.495Z,99082.28
2023-01-17T19:24:02.192Z,99077.16
2023-01-17T19:26:30.127Z,99083.38
2023-01-17T19:29:02.168Z,99078.00
2023-01-17T19:31:30.543Z,99082.91
2023-01-17T19:33:59.318Z,99069.97
2023-01-17T19:36:33.936Z,99078.25
2023-01-17T19:39:05.887Z,99082.66
2023-01-17T19:41:45.831Z,99070.09
2023-01-17T19:44:15.283Z,99080.22
2023-01-17T19:46:42.066Z,99062.19
2023-01-17T19:49:10.275Z,99064.38
2023-01-17T19:51:39.438Z,99087.53
2023-01-17T19:54:07.963Z,99066.34
2023-01-17T19:56:35.226Z,99097.38
2023-01-17T19:59:02.427Z,99105.28
2023-01-17T20:01:32.202Z,99104.56
2023-01-17T20:04:00.158Z,99103.59
2023-01-17T20:06:29.581Z,99098.25
2023-01-17T20:08:57.193Z,99100.16
2023-01-17T20:11:25.607Z,99092.13
2023-01-17T20:13:54.486Z,99089.69
2023-01-17T20:16:24.724Z,99080.09
2023-01-17T20:18:52.398Z,99106.88
2023-01-17T20:21:24.740Z,99110.50
2023-01-17T20:23:55.422Z,99098.72
2023-01-17T20:26:29.268Z,99103.47
2023-01-17T20:28:55.913Z,99109.66
2023-01-17T20:31:24.546Z,99097.47
2023-01-17T20:33:53.431Z,99110.16
2023-01-17T20:36:25.580Z,99066.44
2023-01-17T20:38:54.734Z,99116.97
2023-01-17T20:41:21.266Z,99122.31
2023-01-17T20:43:51.184Z,99124.25
2023-01-17T20:46:20.262Z,99117.09
2023-01-17T20:48:52.100Z,99118.16
2023-01-17T20:51:20.460Z,99121.69
2023-01-17T20:53:51.566Z,99085.03
2023-01-17T20:56:19.305Z,99099.13
2023-01-17T20:58:51.560Z,99121.94
2023-01-17T21:01:19.888Z,99109.88
2023-01-17T21:03:51.531Z,99123.63
2023-01-17T21:06:19.609Z,99104.13
2023-01-17T21:08:47.947Z,99124.63
2023-01-17T21:11:17.090Z,99120.69
2023-01-17T21:13:44.113Z,99126.78
2023-01-17T21:16:13.577Z,99125.94
2023-01-17T21:18:40.255Z,99121.38
2023-01-17T21:21:09.506Z,99088.75
2023-01-17T21:23:37.566Z,99125.91
2023-01-17T21:26:06.269Z,99128.69
2023-01-17T21:28:35.113Z,99124.94
2023-01-17T21:31:19.698Z,99097.38
2023-01-17T21:33:47.653Z,99130.66
2023-01-17T21:36:17.734Z,99109.56
2023-01-17T21:38:49.726Z,99099.22
2023-01-17T21:41:16.371Z,99107.47
2023-01-17T21:43:43.043Z,99124.44
2023-01-17T21:46:10.043Z,99134.88
2023-01-17T21:48:38.766Z,99129.31
2023-01-17T21:51:07.323Z,99138.09
2023-01-17T21:53:38.538Z,99098.59
2023-01-17T21:56:26.786Z,99135.53
2023-01-17T21:58:56.803Z,99143.44
2023-01-17T22:01:26.211Z,99117.00
2023-01-17T22:03:55.634Z,99115.16
2023-01-17T22:06:25.129Z,99152.94
2023-01-17T22:08:51.788Z,99151.97
2023-01-17T22:11:20.972Z,99115.66
2023-01-17T22:13:48.109Z,99151.97
2023-01-17T22:16:18.029Z,99150.47
2023-01-17T22:18:45.929Z,99145.25
2023-01-17T22:21:17.022Z,99150.47
2023-01-17T22:23:57.659Z,99124.69
2023-01-17T22:26:27.297Z,99150.47
2023-01-17T22:28:54.857Z,99151.97
2023-01-17T22:31:24.147Z,99140.88
2023-01-17T22:34:02.329Z,99123.06
2023-01-17T22:36:31.909Z,99141.97
2023-01-17T22:38:59.492Z,99130.53
2023-01-17T22:41:33.056Z,99116.38
2023-01-17T22:44:05.565Z,99112.44
2023-01-17T22:46:35.543Z,99157.16
2023-01-17T22:49:02.144Z,99151.22
2023-01-17T22:51:29.365Z,99122.19
2023-01-17T22:53:58.830Z,99164.31
2023-01-17T22:56:28.671Z,99154.72
2023-01-17T22:58:55.937Z,99166.38
2023-01-17T23:01:28.490Z,99168.22
2023-01-17T23:04:00.529Z,99134.53
2023-01-17T23:06:45.425Z,99160.66
2023-01-17T23:09:15.316Z,99158.31
2023-01-17T23:11:52.228Z,99161.75
2023-01-17T23:14:22.345Z,99166.47
2023-01-17T23:17:21.011Z,99162.94
2023-01-17T23:19:55.204Z,99147.50
2023-01-17T23:22:24.248Z,99130.84
2023-01-17T23:24:54.787Z,99167.56
2023-01-17T23:27:50.049Z,99164.38
2023-01-17T23:30:17.019Z,99163.72
2023-01-17T23:32:47.327Z,99168.47
2023-01-17T23:35:17.709Z,99167.84
2023-01-17T23:38:03.150Z,99170.75
2023-01-17T23:40:31.505Z,99160.16
2023-01-17T23:43:16.620Z,99165.63
2023-01-17T23:45:43.495Z,99128.78
2023-01-17T23:48:10.743Z,99137.69
2023-01-17T23:50:47.228Z,99151.78
2023-01-17T23:53:22.435Z,99164.28
2023-01-17T23:56:04.454Z,99165.09
2023-01-17T23:58:31.244Z,99144.84
